Portneuf, Canada
Current Conditions -  °F | °C
As of 3:02 PM on Wednesday 17 Dec 2014 (Local Time) from CYOY Reporting Station
Light Snow Light Snow  
Wind Chill: 30°   Ceiling: 1900
Heat Index: 30°   Visibility: 1.2mi
Dew Point: 28°   Wind: 3mph
Humidity: 93%   Direction: 140°SE
Pressure: 29.78"   Gusts: NA
Location:  46.69°N, 71.89°W
Report Text: CYOY 172002Z AUTO 14003KT 090V190 1 1/4SM -SN OVC019 M01/M02 A2978
Loading
Personal Weather Stations






























Interactive Weather Map New forecast layout! Learn more

10-Day Weather Forecast

Advertisements
Track Severe Weather on mobile